Time;durP1;ratioP1;P1;durP2;ratioP2;P2;SDS_P1;SDS_P2;PMS_P1;PMS_P2;Temp;Humidity;BMP_temperature;BMP_pressure;BME280_temperature;BME280_humidity;BME280_pressure;Samples;Min_cycle;Max_cycle;Signal;HPM_P1;HPM_P2
2023/01/04 00:01:06;;;;;;;;;1.00;1.00;;;;;11.43;84.51;-19517.38;4926832;28;44926;-96
2023/01/04 00:03:32;;;;;;;;;1.33;1.33;;;;;13.00;84.76;-19558.59;4918230;28;47358;-95
2023/01/04 00:05:59;;;;;;;;;3.33;2.00;;;;;12.99;85.14;-19558.47;4920981;28;45430;-95
2023/01/04 00:08:25;;;;;;;;;1.33;1.33;;;;;13.03;85.22;-19559.53;4936286;28;45341;-94
2023/01/04 00:10:51;;;;;;;;;0.67;0.67;;;;;12.92;85.12;-19556.56;4912895;28;45501;-95
2023/01/04 00:13:16;;;;;;;;;0.00;0.00;;;;;12.93;84.88;-19556.72;4914473;28;48551;-95
2023/01/04 00:15:42;;;;;;;;;1.00;1.00;;;;;12.84;85.07;-19554.56;4919199;28;45953;-95
2023/01/04 00:18:07;;;;;;;;;1.00;1.00;;;;;12.69;85.39;-19550.53;4915711;28;45609;-94
2023/01/04 00:20:33;;;;;;;;;1.00;1.00;;;;;12.76;85.01;-19552.41;4925684;28;45169;-95
2023/01/04 00:22:58;;;;;;;;;1.33;1.33;;;;;12.57;85.01;-19547.44;4934794;28;47456;-95
2023/01/04 00:25:23;;;;;;;;;0.67;0.67;;;;;12.30;84.95;-19540.16;4927159;28;45359;-96
2023/01/04 00:27:50;;;;;;;;;1.00;1.00;;;;;13.01;84.90;-19559.00;4915713;28;45588;-94
2023/01/04 00:30:16;;;;;;;;;0.67;0.67;;;;;12.43;84.46;-19543.66;4912214;28;45346;-95
2023/01/04 00:32:41;;;;;;;;;1.00;1.00;;;;;12.95;84.89;-19557.38;4914667;28;48070;-96
2023/01/04 00:35:07;;;;;;;;;1.67;1.67;;;;;12.96;84.80;-19557.66;4905987;28;46200;-96
2023/01/04 00:37:32;;;;;;;;;1.33;1.33;;;;;12.84;84.54;-19554.56;4934700;28;45395;-96
2023/01/04 00:39:58;;;;;;;;;0.67;0.67;;;;;12.84;85.02;-19554.56;4934952;28;45386;-96
2023/01/04 00:42:23;;;;;;;;;0.67;0.67;;;;;11.48;85.01;-19518.59;4930162;28;47330;-96
2023/01/04 00:44:49;;;;;;;;;0.67;0.67;;;;;11.40;84.52;-19516.59;4946534;28;45354;-96
2023/01/04 00:47:14;;;;;;;;;1.67;1.67;;;;;11.43;84.50;-19517.38;4912519;28;44809;-96
2023/01/04 00:49:40;;;;;;;;;1.67;1.67;;;;;12.08;85.04;-19534.38;4926134;28;45505;-96
2023/01/04 00:52:05;;;;;;;;;1.33;1.33;;;;;12.96;85.36;-19557.66;4925552;28;47236;-95
2023/01/04 00:54:31;;;;;;;;;0.67;0.67;;;;;11.46;84.67;-19518.19;4925145;28;45459;-96
2023/01/04 00:56:57;;;;;;;;;0.67;0.67;;;;;12.01;85.24;-19532.63;4920970;28;45390;-96
2023/01/04 00:59:22;;;;;;;;;0.67;0.67;;;;;12.95;85.08;-19557.25;4920781;28;45477;-96
2023/01/04 01:01:48;;;;;;;;;1.00;1.00;;;;;11.63;85.05;-19522.66;4935261;28;47306;-96
2023/01/04 01:04:16;;;;;;;;;0.67;0.67;;;;;12.33;84.97;-19541.09;4929088;28;45462;-96
2023/01/04 01:06:42;;;;;;;;;0.67;0.67;;;;;11.40;84.94;-19516.59;4918494;28;45304;-96
2023/01/04 01:09:08;;;;;;;;;0.67;0.67;;;;;11.45;85.10;-19517.94;4924805;28;45480;-96
2023/01/04 01:11:35;;;;;;;;;0.33;0.33;;;;;11.31;85.29;-19514.16;4926769;28;47339;-96
2023/01/04 01:14:01;;;;;;;;;1.67;1.67;;;;;11.50;85.32;-19519.16;4925687;28;44839;-96
2023/01/04 01:16:26;;;;;;;;;1.33;1.33;;;;;11.46;85.40;-19518.06;4928573;28;45468;-96
2023/01/04 01:18:52;;;;;;;;;1.33;1.33;;;;;11.53;85.32;-19520.09;4927780;28;45287;-96
2023/01/04 01:21:23;;;;;;;;;0.00;0.00;;;;;11.52;85.27;-19519.69;4925226;28;47093;-96
2023/01/04 01:23:49;;;;;;;;;1.67;1.67;;;;;11.99;85.30;-19532.22;4914032;28;45349;-96
2023/01/04 01:26:18;;;;;;;;;0.67;0.67;;;;;12.34;85.34;-19541.38;4913838;28;45682;-94
2023/01/04 01:28:45;;;;;;;;;1.67;1.67;;;;;11.90;85.43;-19529.78;4920302;28;45326;-95
2023/01/04 01:31:20;;;;;;;;;0.67;0.67;;;;;12.59;85.11;-19547.84;4923522;28;48410;-95
2023/01/04 01:33:48;;;;;;;;;0.67;0.67;;;;;12.91;85.36;-19556.19;4923697;28;46268;-94
2023/01/04 01:36:16;;;;;;;;;1.33;1.33;;;;;13.17;85.26;-19563.03;4923894;28;45391;-94
2023/01/04 01:38:42;;;;;;;;;0.67;0.67;;;;;13.18;85.20;-19563.31;4923768;28;45357;-94
2023/01/04 01:41:16;;;;;;;;;0.67;0.67;;;;;12.99;85.40;-19558.31;4922015;28;47403;-95
2023/01/04 01:44:06;;;;;;;;;1.33;1.33;;;;;13.00;85.83;-19558.59;4922187;28;45409;-96
2023/01/04 01:46:37;;;;;;;;;1.00;1.00;;;;;13.20;85.82;-19563.84;4914636;28;45345;-96
2023/01/04 01:49:24;;;;;;;;;1.67;1.67;;;;;13.21;85.41;-19564.13;4919544;28;45221;-96
2023/01/04 01:51:52;;;;;;;;;1.33;1.33;;;;;13.19;85.35;-19563.72;4911920;28;47207;-96
2023/01/04 01:54:33;;;;;;;;;1.67;1.67;;;;;13.17;85.49;-19563.16;4922597;28;45639;-95
2023/01/04 01:57:02;;;;;;;;;0.67;0.67;;;;;13.20;85.92;-19563.84;4915853;28;45447;-95
2023/01/04 01:59:29;;;;;;;;;0.67;0.67;;;;;13.00;85.21;-19558.72;4925192;28;45538;-95
2023/01/04 02:01:54;;;;;;;;;1.67;1.67;;;;;12.69;85.21;-19550.53;4920921;28;47543;-96
2023/01/04 02:04:20;;;;;;;;;1.00;1.00;;;;;12.36;85.14;-19541.78;4930423;28;46022;-96
2023/01/04 02:06:49;;;;;;;;;1.67;1.67;;;;;11.70;85.44;-19524.53;4923682;28;45419;-96
2023/01/04 02:09:16;;;;;;;;;0.67;0.67;;;;;12.33;84.83;-19540.97;4914782;28;45303;-96
2023/01/04 02:11:42;;;;;;;;;1.67;1.67;;;;;13.22;85.63;-19564.38;4934652;28;48703;-96
2023/01/04 02:14:27;;;;;;;;;1.00;1.00;;;;;12.22;85.09;-19538.13;4935433;28;45734;-95
2023/01/04 02:17:04;;;;;;;;;1.67;1.67;;;;;13.29;85.28;-19566.25;4918616;28;45490;-96
2023/01/04 02:19:33;;;;;;;;;0.67;0.67;;;;;13.34;85.20;-19567.59;4916583;28;45556;-96
2023/01/04 02:22:01;;;;;;;;;1.00;1.00;;;;;13.36;85.12;-19568.00;4909011;28;48223;-96
2023/01/04 02:24:52;;;;;;;;;0.67;0.67;;;;;12.33;85.01;-19540.97;4918214;28;45234;-96
2023/01/04 02:27:36;;;;;;;;;1.00;1.00;;;;;13.36;84.73;-19568.00;4916025;28;45515;-96
2023/01/04 02:30:23;;;;;;;;;2.00;2.00;;;;;13.36;84.70;-19568.00;4914215;28;45553;-96
2023/01/04 02:33:19;;;;;;;;;1.67;1.67;;;;;13.38;84.97;-19568.56;4918318;28;48633;-96
2023/01/04 02:36:17;;;;;;;;;0.67;0.67;;;;;13.39;84.76;-19568.81;4919369;28;45477;-96
2023/01/04 02:38:46;;;;;;;;;0.00;0.00;;;;;13.42;84.90;-19569.75;4917857;28;45500;-95
2023/01/04 02:41:26;;;;;;;;;0.67;0.67;;;;;13.03;84.43;-19559.41;4909136;28;45513;-95
2023/01/04 02:46:54;;;;;;;;;0.33;0.33;;;;;13.14;84.90;-19562.22;4931061;28;45443;-95
2023/01/04 02:52:03;;;;;;;;;1.33;1.33;;;;;13.26;84.38;-19565.59;4942014;28;45162;-96
2023/01/04 02:54:31;;;;;;;;;0.67;0.67;;;;;13.46;84.86;-19570.69;4915563;28;47395;-96
2023/01/04 02:57:02;;;;;;;;;0.67;0.67;;;;;13.49;84.66;-19571.50;4923134;28;46071;-96
2023/01/04 03:00:02;;;;;;;;;1.00;1.00;;;;;13.48;84.54;-19571.38;4910030;28;44661;-96
2023/01/04 03:08:40;;;;;;;;;0.00;0.00;;;;;13.51;84.18;-19572.06;4934677;28;46677;-96
2023/01/04 03:13:56;;;;;;;;;0.33;0.33;;;;;13.50;84.24;-19571.91;4933552;28;45350;-96
2023/01/04 03:16:24;;;;;;;;;1.67;1.67;;;;;13.56;84.32;-19573.25;4923407;28;47423;-95
2023/01/04 03:18:54;;;;;;;;;0.33;0.33;;;;;13.42;84.22;-19569.75;4914743;28;45267;-96
2023/01/04 03:21:23;;;;;;;;;0.67;0.67;;;;;12.88;84.43;-19555.63;4915078;28;46079;-96
2023/01/04 03:35:37;;;;;;;;;1.00;1.00;;;;;13.11;84.55;-19561.56;4930706;28;45513;-91
2023/01/04 03:50:01;;;;;;;;;0.67;0.67;;;;;13.14;84.17;-19562.22;4927877;28;45348;-92
2023/01/04 03:52:30;;;;;;;;;0.00;0.00;;;;;13.57;84.29;-19573.66;4934986;28;45442;-93
2023/01/04 03:54:57;;;;;;;;;0.33;0.33;;;;;13.57;84.18;-19573.66;4924463;28;45435;-93
2023/01/04 03:57:24;;;;;;;;;0.00;0.00;;;;;13.14;84.31;-19562.22;4939937;28;45692;-96
2023/01/04 04:00:01;;;;;;;;;1.00;1.00;;;;;13.59;83.96;-19574.19;4924018;28;48060;-95
2023/01/04 04:02:32;;;;;;;;;0.67;0.67;;;;;13.59;83.79;-19574.19;4912074;28;45365;-96
2023/01/04 04:10:25;;;;;;;;;0.67;0.67;;;;;13.60;84.12;-19574.34;4934548;28;45926;-95
2023/01/04 04:12:51;;;;;;;;;0.00;0.00;;;;;13.62;84.35;-19574.88;4940342;28;45358;-94
2023/01/04 04:15:16;;;;;;;;;0.00;0.00;;;;;13.21;84.70;-19564.25;4920172;28;45653;-94
2023/01/04 04:17:42;;;;;;;;;0.67;0.67;;;;;13.62;84.57;-19574.88;4907360;28;45272;-94
2023/01/04 04:20:09;;;;;;;;;0.00;0.00;;;;;13.02;84.74;-19559.28;4911224;28;48308;-94
2023/01/04 04:22:34;;;;;;;;;0.00;0.00;;;;;13.54;84.82;-19572.84;4937660;28;45306;-94
2023/01/04 04:25:00;;;;;;;;;0.00;0.00;;;;;13.52;84.25;-19572.31;4913540;28;45201;-94
2023/01/04 04:27:25;;;;;;;;;0.00;0.00;;;;;13.51;84.80;-19572.19;4913643;28;45382;-94
2023/01/04 04:29:51;;;;;;;;;0.00;0.00;;;;;13.30;84.89;-19566.66;4922977;28;47266;-93
2023/01/04 04:32:16;;;;;;;;;0.00;0.00;;;;;13.31;84.94;-19566.81;4919036;28;45824;-92
2023/01/04 04:34:41;;;;;;;;;0.33;0.33;;;;;13.34;85.14;-19567.59;4919477;28;45526;-93
2023/01/04 04:37:08;;;;;;;;;0.00;0.00;;;;;13.16;85.12;-19562.75;4916652;28;45471;-92
2023/01/04 04:39:33;;;;;;;;;0.00;0.00;;;;;13.19;85.00;-19563.72;4916632;28;48407;-92
2023/01/04 04:41:59;;;;;;;;;0.00;0.00;;;;;13.31;84.86;-19566.81;4905305;28;45899;-92
2023/01/04 04:44:24;;;;;;;;;1.00;1.00;;;;;12.88;85.32;-19555.63;4931281;28;45371;-93
2023/01/04 04:46:49;;;;;;;;;0.00;0.00;;;;;13.29;85.07;-19566.25;4914487;28;45335;-93
2023/01/04 04:49:16;;;;;;;;;0.00;0.00;;;;;13.75;84.99;-19578.38;4923627;28;47099;-92
2023/01/04 04:51:43;;;;;;;;;0.33;0.33;;;;;13.75;85.08;-19578.22;4922382;28;45445;-93
2023/01/04 04:54:10;;;;;;;;;0.00;0.00;;;;;13.67;85.47;-19576.22;4918904;28;45242;-95
2023/01/04 04:56:35;;;;;;;;;0.00;0.00;;;;;13.69;85.12;-19576.75;4916598;28;45520;-96
2023/01/04 04:59:02;;;;;;;;;0.33;0.33;;;;;13.67;85.23;-19576.22;4914994;28;48094;-91
2023/01/04 05:01:27;;;;;;;;;0.00;0.00;;;;;13.08;85.32;-19560.88;4922461;28;45367;-92
2023/01/04 05:03:52;;;;;;;;;0.00;0.00;;;;;13.35;85.55;-19567.75;4939365;28;45362;-91
2023/01/04 05:06:18;;;;;;;;;0.00;0.00;;;;;13.15;85.71;-19562.50;4939572;28;45483;-91
2023/01/04 05:08:43;;;;;;;;;0.00;0.00;;;;;13.72;85.13;-19577.69;4935983;28;45581;-92
2023/01/04 05:11:12;;;;;;;;;0.67;0.67;;;;;12.85;84.94;-19554.69;4940088;28;45270;-90
2023/01/04 05:13:37;;;;;;;;;0.00;0.00;;;;;12.79;85.73;-19553.09;4919841;28;45521;-91
2023/01/04 05:16:04;;;;;;;;;0.00;0.00;;;;;13.25;85.22;-19565.31;4920847;28;45498;-91
2023/01/04 05:18:30;;;;;;;;;0.33;0.33;;;;;13.66;85.73;-19576.09;4937698;28;47058;-90
2023/01/04 05:20:56;;;;;;;;;0.00;0.00;;;;;12.84;85.46;-19554.56;4915803;28;45382;-90
2023/01/04 05:23:22;;;;;;;;;0.00;0.00;;;;;12.78;85.61;-19552.94;4920842;28;45394;-92
2023/01/04 05:25:54;;;;;;;;;0.00;0.00;;;;;13.37;85.99;-19568.41;4940949;28;45267;-94
2023/01/04 05:28:20;;;;;;;;;0.00;0.00;;;;;13.05;86.10;-19495.72;4921199;28;48584;-93
2023/01/04 05:30:52;;;;;;;;;1.00;1.00;;;;;13.77;85.72;-19578.78;4920801;28;45411;-94
2023/01/04 05:33:17;;;;;;;;;0.00;0.00;;;;;13.78;86.00;-19452.50;4917105;28;45414;-94
2023/01/04 05:35:42;;;;;;;;;0.00;0.00;;;;;13.78;85.71;-19579.16;4917665;28;45412;-94
2023/01/04 05:38:08;;;;;;;;;0.00;0.00;;;;;13.47;86.30;-19397.75;4905855;28;47328;-95
2023/01/04 05:40:33;;;;;;;;;0.00;0.00;;;;;13.33;85.94;-19461.41;4907990;28;45726;-93
2023/01/04 05:42:58;;;;;;;;;0.33;0.33;;;;;13.81;86.26;-19261.03;4926182;28;45252;-94
2023/01/04 05:45:24;;;;;;;;;0.00;0.00;;;;;13.83;85.70;-19580.38;4924016;28;45586;-91
2023/01/04 05:47:51;;;;;;;;;0.00;0.00;;;;;13.79;85.90;-19579.44;4913856;28;47080;-92
2023/01/04 05:50:19;;;;;;;;;0.00;0.00;;;;;13.34;86.03;-19181.38;4922346;28;45284;-92
2023/01/04 05:52:44;;;;;;;;;0.00;0.00;;;;;13.69;86.43;-19011.19;4926324;28;45432;-91
2023/01/04 05:55:10;;;;;;;;;0.00;0.00;;;;;12.70;86.71;-17514.88;4911447;28;45742;-92
2023/01/04 05:57:36;;;;;;;;;0.00;0.00;;;;;13.23;87.04;-16173.59;4913714;28;47949;-95
2023/01/04 06:00:03;;;;;;;;;0.00;0.00;;;;;13.28;87.24;-16078.63;4912967;28;47176;-91
2023/01/04 06:02:29;;;;;;;;;0.00;0.00;;;;;13.81;87.33;-15272.84;4935745;28;45388;-92
2023/01/04 06:07:33;;;;;;;;;0.00;0.00;;;;;12.96;86.82;-16365.31;5063565;23;45545;-87
2023/01/04 06:09:59;;;;;;;;;0.00;0.00;;;;;12.24;86.65;-16498.09;4910893;28;45563;-85
2023/01/04 06:12:24;;;;;;;;;0.00;0.00;;;;;13.77;87.08;-16512.56;4910805;28;45535;-85
2023/01/04 06:14:50;;;;;;;;;0.00;0.00;;;;;12.92;87.06;-16390.50;5151153;23;45486;-85
2023/01/04 06:17:15;;;;;;;;;0.67;0.00;;;;;13.58;87.25;-16352.53;4924348;28;45559;-86
2023/01/04 06:19:41;;;;;;;;;0.00;0.00;;;;;13.52;86.73;-16863.38;5151994;23;45608;-85
2023/01/04 06:22:06;;;;;;;;;1.00;0.00;;;;;13.80;86.77;-16718.50;4907162;28;45451;-86
2023/01/04 06:24:32;;;;;;;;;0.00;0.00;;;;;13.39;86.92;-16481.06;4966757;23;45308;-91
2023/01/04 06:26:58;;;;;;;;;0.00;0.00;;;;;13.56;87.12;-16840.66;4886936;28;48212;-91
2023/01/04 06:29:24;;;;;;;;;0.00;0.00;;;;;13.01;86.79;-17181.91;4881474;28;45448;-89
2023/01/04 06:31:49;;;;;;;;;0.00;0.00;;;;;13.26;86.91;-17083.53;4895263;29;47050;-90
2023/01/04 06:34:15;;;;;;;;;0.00;0.00;;;;;13.30;86.80;-16531.06;4881469;28;45510;-89
2023/01/04 06:36:40;;;;;;;;;0.00;0.00;;;;;13.76;87.08;-16005.16;4879964;29;48133;-88
2023/01/04 06:39:06;;;;;;;;;0.67;0.00;;;;;13.81;86.80;-16653.72;4883896;28;46699;-91
2023/01/04 06:41:32;;;;;;;;;0.00;0.00;;;;;13.02;87.05;-16031.66;4903652;28;45470;-91
2023/01/04 06:43:58;;;;;;;;;0.00;0.00;;;;;13.56;87.03;-16349.50;4882736;28;45667;-90
2023/01/04 06:46:24;;;;;;;;;0.00;0.00;;;;;12.96;87.01;-16708.19;4878638;29;48332;-90
2023/01/04 06:48:49;;;;;;;;;0.00;0.00;;;;;13.16;87.06;-16964.38;4912789;28;45437;-90
2023/01/04 06:51:14;;;;;;;;;0.00;0.00;;;;;13.47;86.98;-16303.47;4894704;29;45310;-89
2023/01/04 06:53:40;;;;;;;;;0.00;0.00;;;;;13.33;87.11;-14865.72;4883271;28;45582;-91
2023/01/04 06:56:07;;;;;;;;;0.00;0.00;;;;;13.36;87.73;-13841.91;4893872;29;48215;-90
2023/01/04 06:58:33;;;;;;;;;0.00;0.00;;;;;13.06;87.53;-13818.72;4912263;28;45463;-90
2023/01/04 07:00:58;;;;;;;;;0.00;0.00;;;;;13.56;88.00;-13468.25;4893746;29;45475;-90
2023/01/04 07:03:24;;;;;;;;;0.00;0.00;;;;;13.68;87.94;-13033.03;4894833;28;45432;-90
2023/01/04 07:05:49;;;;;;;;;0.67;0.00;;;;;13.25;87.90;-12940.44;4902520;28;46333;-88
2023/01/04 07:08:15;;;;;;;;;0.00;0.00;;;;;13.42;88.11;-12709.06;4902690;28;45486;-90
2023/01/04 07:10:40;;;;;;;;;0.00;0.00;;;;;13.33;87.97;-12863.69;4888759;28;45576;-87
2023/01/04 07:13:06;;;;;;;;;0.00;0.00;;;;;13.21;87.78;-12479.50;4898329;28;45546;-90
2023/01/04 07:15:32;;;;;;;;;0.00;0.00;;;;;12.86;88.09;-12856.44;4900668;28;46414;-92
2023/01/04 07:17:57;;;;;;;;;0.33;0.00;;;;;13.49;87.52;-13142.00;4881858;29;45471;-90
2023/01/04 07:20:22;;;;;;;;;0.00;0.00;;;;;13.41;87.53;-14063.84;4892215;29;45755;-91
2023/01/04 07:22:48;;;;;;;;;0.00;0.00;;;;;13.60;87.70;-14756.47;4871539;29;45377;-91
2023/01/04 07:25:13;;;;;;;;;0.00;0.00;;;;;13.81;87.84;-14534.03;4898192;28;45429;-91
2023/01/04 07:27:39;;;;;;;;;0.00;0.00;;;;;13.36;87.75;-14806.59;4898831;28;45737;-91
2023/01/04 07:30:05;;;;;;;;;0.00;0.00;;;;;13.87;87.41;-15414.50;4899140;28;45612;-91
2023/01/04 07:32:30;;;;;;;;;0.00;0.00;;;;;13.58;87.14;-15135.66;4881842;29;45544;-91
2023/01/04 07:34:57;;;;;;;;;0.00;0.00;;;;;13.28;87.02;-15878.53;4876374;29;46591;-91
2023/01/04 07:37:22;;;;;;;;;0.00;0.00;;;;;13.19;87.21;-15840.28;4903409;28;45303;-90
2023/01/04 07:39:48;;;;;;;;;0.00;0.00;;;;;14.04;87.26;-16380.38;4882153;29;45378;-91
2023/01/04 07:42:13;;;;;;;;;0.00;0.00;;;;;14.06;87.02;-17078.03;4884261;28;45399;-91
2023/01/04 07:44:39;;;;;;;;;0.00;0.00;;;;;13.42;87.04;-17341.81;4888456;29;46998;-92
2023/01/04 07:47:04;;;;;;;;;0.00;0.00;;;;;13.33;86.67;-17505.97;4906365;28;45616;-91
2023/01/04 07:49:30;;;;;;;;;0.00;0.00;;;;;13.55;87.01;-17630.47;4888130;29;45552;-91
2023/01/04 07:51:55;;;;;;;;;0.00;0.00;;;;;13.81;86.55;-17215.47;4888993;28;45548;-91
2023/01/04 07:54:23;;;;;;;;;0.00;0.00;;;;;14.12;86.92;-16998.66;4889359;29;47279;-91
2023/01/04 07:56:49;;;;;;;;;0.00;0.00;;;;;14.15;87.00;-17881.13;4885630;28;45503;-91
2023/01/04 07:59:16;;;;;;;;;0.00;0.00;;;;;14.17;86.97;-17863.28;4908175;28;45313;-91
2023/01/04 08:01:42;;;;;;;;;0.00;0.00;;;;;13.40;86.88;-18105.00;4903474;28;45400;-91
2023/01/04 08:04:10;;;;;;;;;0.00;0.00;;;;;13.78;87.02;-17622.91;4887294;29;48299;-91
2023/01/04 08:06:36;;;;;;;;;0.00;0.00;;;;;13.60;86.89;-17777.28;4886097;28;45477;-91
2023/01/04 08:09:02;;;;;;;;;0.00;0.00;;;;;13.22;87.29;-17199.50;4890730;29;45586;-91
2023/01/04 08:11:28;;;;;;;;;1.33;0.00;;;;;13.53;86.62;-17001.22;4903845;28;45417;-91
2023/01/04 08:13:53;;;;;;;;;0.00;0.00;;;;;13.55;86.53;-18698.41;4886417;29;48614;-91
2023/01/04 08:16:21;;;;;;;;;0.00;0.00;;;;;14.27;86.87;-17857.88;4907093;28;45441;-91
2023/01/04 08:18:47;;;;;;;;;0.00;0.00;;;;;12.90;86.99;-16865.25;4891333;29;45611;-91
2023/01/04 08:21:13;;;;;;;;;0.00;0.00;;;;;13.22;86.83;-16542.41;4891043;28;45522;-92
2023/01/04 08:23:38;;;;;;;;;0.00;0.00;;;;;13.88;87.36;-16210.56;4886925;29;48137;-91
2023/01/04 08:26:10;;;;;;;;;0.67;0.67;;;;;14.04;87.00;-16619.78;4886540;28;45399;-91
2023/01/04 08:28:35;;;;;;;;;0.00;0.00;;;;;13.64;87.18;-17216.84;4885971;29;45453;-91
2023/01/04 08:31:15;;;;;;;;;0.00;0.00;;;;;14.07;86.96;-17127.69;4937768;23;45310;-87
2023/01/04 08:33:41;;;;;;;;;0.00;0.00;;;;;14.35;87.22;-17802.69;4915061;28;45547;-87
2023/01/04 08:36:08;;;;;;;;;0.00;0.00;;;;;14.26;86.82;-17860.25;4923463;28;45486;-87
2023/01/04 08:38:34;;;;;;;;;0.00;0.00;;;;;14.06;86.53;-17990.91;4913045;28;45533;-86
2023/01/04 08:40:59;;;;;;;;;0.00;0.00;;;;;14.22;87.09;-17437.88;4952790;23;45586;-91
2023/01/04 08:43:24;;;;;;;;;0.00;0.00;;;;;14.39;86.90;-17884.19;4901569;28;48128;-92
2023/01/04 08:45:50;;;;;;;;;0.00;0.00;;;;;14.34;86.59;-18556.75;4903751;28;45353;-92
2023/01/04 08:48:15;;;;;;;;;0.00;0.00;;;;;13.72;86.88;-17842.53;4904287;28;45380;-91
2023/01/04 08:50:43;;;;;;;;;0.00;0.00;;;;;14.43;86.84;-18639.53;4921157;28;45382;-90
2023/01/04 08:53:09;;;;;;;;;0.00;0.00;;;;;14.28;87.04;-18209.41;4903902;28;47971;-90
2023/01/04 08:55:35;;;;;;;;;0.00;0.00;;;;;14.26;86.36;-19012.44;4903169;28;45388;-91
2023/01/04 08:58:00;;;;;;;;;1.67;0.00;;;;;14.05;86.42;-18871.94;4904299;28;45443;-91
2023/01/04 09:00:26;;;;;;;;;0.00;0.00;;;;;14.06;86.59;-19025.59;4904610;28;45416;-91
2023/01/04 09:02:51;;;;;;;;;0.00;0.00;;;;;14.34;86.53;-18884.47;4918580;28;48435;-91
2023/01/04 09:05:18;;;;;;;;;0.00;0.00;;;;;13.57;86.73;-18371.56;4903243;28;45681;-91
2023/01/04 09:07:43;;;;;;;;;0.00;0.00;;;;;14.28;87.00;-17527.72;4904028;28;45449;-92
2023/01/04 09:10:09;;;;;;;;;0.00;0.00;;;;;14.56;87.13;-16888.75;4895414;28;45527;-91
2023/01/04 09:12:34;;;;;;;;;0.00;0.00;;;;;13.75;87.06;-16623.81;4902017;28;47337;-92
2023/01/04 09:14:59;;;;;;;;;0.00;0.00;;;;;13.93;87.22;-16768.22;4901103;28;45595;-91
2023/01/04 09:17:27;;;;;;;;;0.00;0.00;;;;;14.15;87.36;-16515.44;4899251;28;45292;-91
2023/01/04 09:19:53;;;;;;;;;0.00;0.00;;;;;14.26;87.33;-16876.81;4901095;28;45453;-91
2023/01/04 09:22:18;;;;;;;;;0.50;0.00;;;;;13.85;87.04;-16542.78;4915503;28;45398;-91
2023/01/04 09:24:43;;;;;;;;;0.00;0.00;;;;;14.64;87.29;-17116.84;4900307;28;45514;-92
2023/01/04 09:27:09;;;;;;;;;0.00;0.00;;;;;14.52;87.02;-17291.31;4906459;28;45592;-92
2023/01/04 09:29:34;;;;;;;;;1.00;0.00;;;;;14.53;87.10;-17218.66;4909600;28;45605;-91
2023/01/04 09:31:59;;;;;;;;;0.00;0.00;;;;;14.72;87.23;-18089.72;4924887;28;45412;-92
2023/01/04 09:34:25;;;;;;;;;0.00;0.00;;;;;14.18;87.03;-18165.22;4918201;28;45568;-92
2023/01/04 09:36:51;;;;;;;;;0.00;0.00;;;;;14.54;86.29;-18496.72;4916597;28;45473;-91
2023/01/04 09:39:16;;;;;;;;;0.00;0.00;;;;;13.72;86.90;-18364.81;4920004;28;45320;-93
2023/01/04 09:41:49;;;;;;;;;0.00;0.00;;;;;14.10;86.76;-18470.22;4904308;28;47079;-96
2023/01/04 09:44:27;;;;;;;;;1.00;0.00;;;;;14.38;86.66;-18849.09;4917882;28;45489;-93
2023/01/04 09:47:07;;;;;;;;;0.00;0.00;;;;;14.01;86.52;-18883.91;4915927;28;45420;-93
2023/01/04 09:49:54;;;;;;;;;0.00;0.00;;;;;14.80;86.46;-19291.53;4910841;28;45603;-94
2023/01/04 09:52:33;;;;;;;;;0.00;0.00;;;;;14.45;86.40;-19318.97;4904440;28;47345;-93
2023/01/04 09:55:02;;;;;;;;;0.00;0.00;;;;;14.59;86.57;-19382.53;4911151;28;45422;-93
2023/01/04 09:57:34;;;;;;;;;0.00;0.00;;;;;14.71;86.68;-19206.16;4907599;28;45407;-92
2023/01/04 10:00:26;;;;;;;;;0.00;0.00;;;;;14.83;86.63;-19414.78;4927161;28;45319;-93
2023/01/04 10:03:09;;;;;;;;;0.00;0.00;;;;;14.75;86.58;-19604.69;4887142;28;48430;-93
2023/01/04 10:05:34;;;;;;;;;0.00;0.00;;;;;14.58;86.19;-19600.13;4905675;28;46294;-93
2023/01/04 10:08:02;;;;;;;;;0.00;0.00;;;;;14.62;86.38;-19601.06;4900724;28;45338;-93
2023/01/04 10:10:33;;;;;;;;;0.00;0.00;;;;;14.94;86.17;-19609.53;4911358;28;45888;-93
2023/01/04 10:13:20;;;;;;;;;0.00;0.00;;;;;14.95;86.19;-19609.94;4896661;28;48434;-94
2023/01/04 10:16:05;;;;;;;;;0.00;0.00;;;;;14.98;86.39;-19610.75;4901743;28;46253;-94
2023/01/04 10:19:03;;;;;;;;;0.00;0.00;;;;;14.99;86.25;-19611.00;4902645;28;45654;-93
2023/01/04 10:21:35;;;;;;;;;0.00;0.00;;;;;14.99;86.27;-19610.88;4918003;28;45488;-93
2023/01/04 10:24:37;;;;;;;;;0.00;0.00;;;;;15.01;86.18;-19611.28;4906534;28;48230;-94
2023/01/04 10:27:28;;;;;;;;;0.00;0.00;;;;;14.99;85.85;-19610.88;4901841;28;45595;-93
2023/01/04 10:30:15;;;;;;;;;0.00;0.00;;;;;14.98;85.92;-19610.75;4897251;28;45559;-93
2023/01/04 10:32:45;;;;;;;;;0.00;0.00;;;;;15.03;86.19;-19611.81;4907008;28;45458;-95
2023/01/04 10:35:23;;;;;;;;;0.00;0.00;;;;;15.01;86.24;-19611.41;4900466;28;47570;-94
2023/01/04 10:38:02;;;;;;;;;0.00;0.00;;;;;15.02;85.90;-19611.69;4901508;28;45528;-94
2023/01/04 10:40:31;;;;;;;;;1.00;1.00;;;;;14.60;85.90;-19600.66;4901252;28;46086;-95
2023/01/04 10:43:06;;;;;;;;;0.00;0.00;;;;;15.09;86.08;-19613.44;4913648;28;45728;-96
2023/01/04 10:45:38;;;;;;;;;0.00;0.00;;;;;15.08;85.81;-19613.16;4890144;28;47089;-95
2023/01/04 10:48:12;;;;;;;;;0.00;0.00;;;;;15.08;85.63;-19613.16;4902193;28;45575;-95
2023/01/04 10:50:50;;;;;;;;;0.00;0.00;;;;;15.06;85.98;-19612.63;4902783;28;45574;-95
2023/01/04 10:53:22;;;;;;;;;0.00;0.00;;;;;14.92;85.78;-19609.00;4902881;28;45649;-95
2023/01/04 10:55:56;;;;;;;;;0.00;0.00;;;;;15.08;85.99;-19613.16;4901144;28;48606;-95
2023/01/04 10:58:31;;;;;;;;;0.00;0.00;;;;;15.09;85.91;-19613.44;4900676;28;45616;-94
2023/01/04 11:01:09;;;;;;;;;0.00;0.00;;;;;14.71;85.97;-19603.50;4900796;28;45575;-94
2023/01/04 11:03:52;;;;;;;;;0.00;0.00;;;;;14.75;86.17;-19604.69;4918073;28;45415;-94
2023/01/04 11:06:23;;;;;;;;;0.00;0.00;;;;;14.93;85.98;-19609.25;4894694;29;48897;-94
2023/01/04 11:09:02;;;;;;;;;0.00;0.00;;;;;15.01;86.45;-19611.28;4899616;28;45405;-95
2023/01/04 11:11:34;;;;;;;;;0.00;0.00;;;;;15.12;86.49;-19614.34;4900385;28;45420;-95
2023/01/04 11:14:00;;;;;;;;;0.00;0.00;;;;;15.03;86.40;-19611.81;4905525;28;45488;-94
2023/01/04 11:16:28;;;;;;;;;0.00;0.00;;;;;15.15;86.00;-19615.03;4898297;28;47379;-94
2023/01/04 11:18:57;;;;;;;;;0.00;0.00;;;;;14.81;86.59;-19606.03;4902720;29;46407;-93
2023/01/04 11:21:28;;;;;;;;;0.00;0.00;;;;;13.97;86.25;-19584.16;4919836;28;45494;-95
2023/01/04 11:23:59;;;;;;;;;0.00;0.00;;;;;14.81;86.19;-19606.03;4903928;28;45414;-94
2023/01/04 11:26:31;;;;;;;;;0.00;0.00;;;;;15.03;86.44;-19550.13;4915940;28;47397;-95
2023/01/04 11:29:05;;;;;;;;;0.00;0.00;;;;;15.19;86.44;-19562.22;4900508;28;45500;-95
2023/01/04 11:32:03;;;;;;;;;0.00;0.00;;;;;15.19;86.42;-19416.38;4903967;28;45500;-95
2023/01/04 11:34:44;;;;;;;;;0.00;0.00;;;;;15.20;86.69;-19388.00;4892695;28;45397;-95
2023/01/04 11:37:48;;;;;;;;;0.00;0.00;;;;;15.24;86.40;-19414.84;4903861;28;47208;-94
2023/01/04 11:40:16;;;;;;;;;0.00;0.00;;;;;15.26;86.57;-19087.31;4823278;29;45493;-95
2023/01/04 11:42:49;;;;;;;;;0.00;0.00;;;;;15.25;86.74;-19253.75;4829695;29;45581;-95
2023/01/04 11:45:20;;;;;;;;;0.00;0.00;;;;;15.26;86.79;-18756.38;4828380;29;45254;-95
2023/01/04 11:47:48;;;;;;;;;0.00;0.00;;;;;15.10;86.61;-18479.00;4828749;29;47465;-95
2023/01/04 11:50:36;;;;;;;;;0.00;0.00;;;;;15.20;87.13;-18549.34;4832695;29;45959;-95
2023/01/04 11:53:02;;;;;;;;;0.00;0.00;;;;;15.25;86.94;-18006.00;4827518;29;45377;-94
2023/01/04 11:55:29;;;;;;;;;0.00;0.00;;;;;15.22;87.38;-17241.75;4826006;29;45450;-94
2023/01/04 11:58:12;;;;;;;;;0.00;0.00;;;;;14.67;87.29;-16049.91;4819203;29;48441;-94
2023/01/04 12:00:48;;;;;;;;;0.00;0.00;;;;;15.29;87.88;-15739.38;4827841;29;45453;-95
2023/01/04 12:03:16;;;;;;;;;0.00;0.00;;;;;15.02;87.72;-15486.38;4828589;29;45464;-95
2023/01/04 12:05:42;;;;;;;;;0.00;0.00;;;;;15.31;87.67;-15575.66;4841227;29;45627;-94
2023/01/04 12:08:35;;;;;;;;;0.00;0.00;;;;;15.10;88.09;-13532.66;4827231;29;48139;-96
2023/01/04 12:11:04;;;;;;;;;0.00;0.00;;;;;15.31;88.17;-13528.41;4879159;29;45360;-94
2023/01/04 12:13:32;;;;;;;;;0.00;0.00;;;;;15.14;88.03;-13669.03;4906513;28;45462;-94
2023/01/04 12:16:00;;;;;;;;;0.33;0.33;;;;;15.30;88.52;-12474.19;4910221;28;45529;-95
2023/01/04 12:18:29;;;;;;;;;0.00;0.00;;;;;14.45;88.03;-13204.09;4927811;28;48212;-95
2023/01/04 12:20:56;;;;;;;;;0.00;0.00;;;;;15.09;88.39;-11555.41;4892518;29;45577;-94